Time;durP1;ratioP1;P1;durP2;ratioP2;P2;SDS_P1;SDS_P2;PMS_P1;PMS_P2;Temp;Humidity;BMP_temperature;BMP_pressure;BME280_temperature;BME280_humidity;BME280_pressure;Samples;Min_cycle;Max_cycle;Signal;HPM_P1;HPM_P2
2022/07/06 00:01:09;;;;;;;4.30;3.25;;;20.30;99.90;;;;;;5021618;28;20049;-75
2022/07/06 00:03:37;;;;;;;4.15;3.40;;;20.40;99.90;;;;;;5018528;28;20037;-75
2022/07/06 00:06:04;;;;;;;4.13;3.72;;;20.40;99.90;;;;;;5000741;28;20045;-77
2022/07/06 00:08:31;;;;;;;4.70;3.83;;;20.30;99.90;;;;;;5018303;28;20073;-77
2022/07/06 00:10:58;;;;;;;4.05;3.38;;;20.30;99.90;;;;;;5016734;28;20412;-77
2022/07/06 00:13:25;;;;;;;4.82;3.30;;;20.30;99.90;;;;;;5000780;28;20042;-77
2022/07/06 00:15:52;;;;;;;6.28;3.67;;;20.40;99.90;;;;;;5035567;28;20108;-74
2022/07/06 00:18:20;;;;;;;4.80;3.05;;;20.40;99.90;;;;;;5018814;28;20034;-76
2022/07/06 00:20:47;;;;;;;4.03;3.33;;;20.40;99.90;;;;;;5013253;28;20052;-76
2022/07/06 00:23:14;;;;;;;4.22;2.85;;;20.40;99.90;;;;;;5018322;28;21517;-76
2022/07/06 00:25:41;;;;;;;6.13;3.63;;;20.30;99.90;;;;;;5018050;28;22055;-76
2022/07/06 00:28:09;;;;;;;5.88;3.80;;;20.30;99.90;;;;;;5013066;28;20148;-76
2022/07/06 00:30:36;;;;;;;4.35;3.40;;;20.30;99.90;;;;;;5017050;28;20042;-76
2022/07/06 00:33:03;;;;;;;3.90;3.30;;;20.30;99.90;;;;;;5019151;28;20049;-76
2022/07/06 00:35:30;;;;;;;4.75;3.65;;;20.50;99.90;;;;;;5021000;28;20068;-76
2022/07/06 00:37:57;;;;;;;3.53;3.20;;;20.50;99.90;;;;;;5019365;28;24811;-76
2022/07/06 00:40:24;;;;;;;4.07;3.60;;;20.50;99.90;;;;;;5021857;28;20434;-76
2022/07/06 00:42:51;;;;;;;4.82;3.58;;;20.40;99.90;;;;;;5019564;28;20048;-76
2022/07/06 00:45:19;;;;;;;4.47;3.67;;;20.30;99.90;;;;;;5011359;28;20566;-76
2022/07/06 00:47:46;;;;;;;4.63;3.65;;;20.30;99.90;;;;;;5019814;28;20045;-76
2022/07/06 00:50:18;;;;;;;5.03;3.53;;;20.30;99.90;;;;;;4998760;28;21086;-76
2022/07/06 00:52:47;;;;;;;5.22;3.55;;;20.30;99.90;;;;;;5012409;28;20045;-77
2022/07/06 00:55:18;;;;;;;4.55;3.40;;;20.30;99.90;;;;;;5008402;28;20496;-76
2022/07/06 00:57:46;;;;;;;4.07;3.05;;;20.20;99.90;;;;;;5029095;28;20049;-76
2022/07/06 01:00:17;;;;;;;4.10;3.67;;;20.20;99.90;;;;;;5034994;28;20054;-76
2022/07/06 01:02:44;;;;;;;5.00;3.63;;;20.20;99.90;;;;;;5013856;28;20049;-76
2022/07/06 01:05:13;;;;;;;4.25;3.65;;;20.20;99.90;;;;;;5007017;28;20041;-76
2022/07/06 01:07:43;;;;;;;4.03;3.45;;;20.20;99.90;;;;;;5011415;28;20567;-76
2022/07/06 01:10:11;;;;;;;6.22;3.80;;;20.20;99.90;;;;;;5015464;28;20065;-76
2022/07/06 01:12:41;;;;;;;5.35;3.58;;;20.00;99.90;;;;;;5017618;28;20055;-76
2022/07/06 01:15:11;;;;;;;7.07;4.15;;;19.90;99.90;;;;;;5019184;28;20042;-76
2022/07/06 01:17:40;;;;;;;6.40;3.95;;;20.00;99.90;;;;;;5017121;28;20042;-76
2022/07/06 01:20:14;;;;;;;5.55;3.78;;;20.00;99.90;;;;;;5017659;28;20515;-76
2022/07/06 01:22:42;;;;;;;3.92;3.50;;;20.00;99.90;;;;;;5033542;28;20140;-76
2022/07/06 01:25:10;;;;;;;4.13;3.28;;;20.00;99.90;;;;;;5017319;28;20041;-76
2022/07/06 01:27:40;;;;;;;5.00;3.67;;;20.00;99.90;;;;;;5001491;28;20054;-76
2022/07/06 01:30:09;;;;;;;5.35;3.53;;;20.00;99.90;;;;;;5014503;28;20042;-76
2022/07/06 01:32:37;;;;;;;5.75;3.42;;;19.90;99.90;;;;;;5011078;28;20046;-76
2022/07/06 01:35:11;;;;;;;4.75;4.00;;;19.90;99.90;;;;;;5021098;28;20038;-76
2022/07/06 01:37:39;;;;;;;7.97;4.47;;;19.90;99.90;;;;;;5011421;28;20067;-76
2022/07/06 01:40:09;;;;;;;5.30;3.47;;;19.90;99.90;;;;;;5019294;28;20057;-76
2022/07/06 01:42:36;;;;;;;4.68;3.08;;;19.90;99.90;;;;;;5017293;28;20060;-76
2022/07/06 01:45:05;;;;;;;3.95;3.38;;;19.80;99.90;;;;;;5001671;28;20077;-76
2022/07/06 01:47:35;;;;;;;3.78;3.08;;;19.90;99.90;;;;;;5016809;28;20049;-76
2022/07/06 01:50:05;;;;;;;3.88;3.50;;;19.90;99.90;;;;;;5014627;28;20759;-75
2022/07/06 01:52:35;;;;;;;7.05;4.03;;;19.80;99.90;;;;;;5031919;28;20060;-76
2022/07/06 01:55:03;;;;;;;4.72;3.22;;;19.90;99.90;;;;;;5034371;28;20056;-76
2022/07/06 01:57:32;;;;;;;5.00;3.13;;;19.90;99.90;;;;;;5010297;28;20064;-76
2022/07/06 01:59:59;;;;;;;5.15;3.08;;;19.90;99.90;;;;;;5015138;28;20451;-76
2022/07/06 02:02:27;;;;;;;4.75;3.60;;;19.90;99.90;;;;;;5010053;28;20096;-76
2022/07/06 02:04:54;;;;;;;4.95;3.53;;;19.80;99.90;;;;;;5014997;28;20488;-76
2022/07/06 02:07:21;;;;;;;4.50;3.30;;;19.80;99.90;;;;;;5014058;28;20397;-77
2022/07/06 02:09:48;;;;;;;7.13;4.00;;;19.70;99.90;;;;;;5017581;28;20061;-76
2022/07/06 02:12:16;;;;;;;6.50;3.67;;;19.60;99.90;;;;;;5013216;28;20055;-76
2022/07/06 02:14:43;;;;;;;4.45;3.65;;;19.60;99.90;;;;;;5016335;28;20500;-76
2022/07/06 02:17:10;;;;;;;3.88;3.30;;;19.60;99.90;;;;;;5014116;28;20056;-77
2022/07/06 02:19:37;;;;;;;4.68;3.60;;;19.50;99.90;;;;;;5017555;28;20046;-77
2022/07/06 02:22:04;;;;;;;5.20;3.35;;;19.50;99.90;;;;;;5008026;28;20072;-75
2022/07/06 02:24:32;;;;;;;6.13;4.00;;;19.60;99.90;;;;;;4995935;28;20504;-75
2022/07/06 02:26:59;;;;;;;3.55;3.22;;;19.60;99.90;;;;;;5024239;28;20542;-75
2022/07/06 02:29:26;;;;;;;5.00;3.25;;;19.60;99.90;;;;;;5016571;28;20393;-75
2022/07/06 02:31:53;;;;;;;5.03;3.55;;;19.70;99.90;;;;;;4999880;28;20042;-77
2022/07/06 02:34:20;;;;;;;4.55;3.90;;;19.70;99.90;;;;;;5009854;28;20151;-74
2022/07/06 02:36:48;;;;;;;4.55;3.15;;;19.80;99.90;;;;;;5015719;28;20042;-74
2022/07/06 02:39:17;;;;;;;4.35;3.20;;;19.70;99.90;;;;;;5025981;28;20147;-75
2022/07/06 02:41:44;;;;;;;3.55;2.97;;;19.70;99.90;;;;;;5015459;28;20049;-77
2022/07/06 02:44:11;;;;;;;3.80;3.05;;;19.70;99.90;;;;;;5027585;28;20584;-77
2022/07/06 02:46:39;;;;;;;4.32;3.50;;;19.80;99.90;;;;;;5015031;28;20136;-77
2022/07/06 02:49:06;;;;;;;3.83;3.45;;;19.70;99.90;;;;;;5015015;28;20207;-75
2022/07/06 02:51:33;;;;;;;4.00;3.17;;;19.70;99.90;;;;;;5019511;28;20048;-75
2022/07/06 02:54:00;;;;;;;5.72;3.40;;;19.60;99.90;;;;;;5014287;28;20045;-75
2022/07/06 02:56:28;;;;;;;3.67;3.35;;;19.60;99.90;;;;;;4997594;28;20136;-75
2022/07/06 02:58:57;;;;;;;3.30;3.00;;;19.60;99.90;;;;;;5008953;28;20061;-75
2022/07/06 03:01:24;;;;;;;4.60;3.00;;;19.60;99.90;;;;;;5018758;28;20054;-75
2022/07/06 03:03:51;;;;;;;3.88;3.35;;;19.70;99.90;;;;;;5012797;28;20635;-75
2022/07/06 03:06:19;;;;;;;5.30;3.38;;;19.60;99.90;;;;;;5015950;28;20673;-75
2022/07/06 03:08:46;;;;;;;4.05;3.65;;;19.70;99.90;;;;;;4997986;28;20045;-75
2022/07/06 03:11:13;;;;;;;4.80;3.42;;;19.70;99.90;;;;;;5017487;28;20053;-74
2022/07/06 03:13:41;;;;;;;5.95;3.40;;;19.70;99.90;;;;;;4999366;28;20096;-75
2022/07/06 03:16:08;;;;;;;4.53;2.97;;;19.70;99.90;;;;;;5015543;28;20073;-74
2022/07/06 03:18:35;;;;;;;4.03;3.35;;;19.70;99.90;;;;;;4999625;28;20038;-75
2022/07/06 03:21:03;;;;;;;4.47;3.55;;;19.70;99.90;;;;;;5032485;28;20049;-75
2022/07/06 03:23:31;;;;;;;4.50;2.90;;;19.80;99.90;;;;;;5027164;28;20042;-74
2022/07/06 03:25:58;;;;;;;3.88;3.25;;;19.70;99.90;;;;;;5008933;28;20587;-75
2022/07/06 03:28:28;;;;;;;5.13;3.83;;;19.60;99.90;;;;;;5018195;28;20069;-74
2022/07/06 03:30:55;;;;;;;6.03;4.15;;;19.60;99.90;;;;;;5000699;28;20448;-74
2022/07/06 03:33:22;;;;;;;4.82;3.92;;;19.60;99.90;;;;;;5010838;28;20053;-75
2022/07/06 03:35:50;;;;;;;5.70;4.15;;;19.60;99.90;;;;;;5011287;28;20792;-75
2022/07/06 03:38:17;;;;;;;6.18;3.88;;;19.50;99.90;;;;;;5015276;28;20129;-75
2022/07/06 03:40:44;;;;;;;5.22;3.60;;;19.60;99.90;;;;;;5012017;28;20180;-74
2022/07/06 03:43:12;;;;;;;4.50;3.25;;;19.50;99.90;;;;;;5014378;28;20053;-74
2022/07/06 03:45:39;;;;;;;4.88;3.92;;;19.50;99.90;;;;;;5015307;28;20570;-74
2022/07/06 03:48:06;;;;;;;5.30;4.00;;;19.50;99.90;;;;;;5024530;28;20112;-75
2022/07/06 03:50:36;;;;;;;4.90;3.70;;;19.60;99.90;;;;;;5015400;28;20091;-75
2022/07/06 03:53:03;;;;;;;4.03;3.50;;;19.70;99.90;;;;;;5001957;28;20048;-75
2022/07/06 03:55:31;;;;;;;5.85;4.15;;;19.70;99.90;;;;;;5017078;28;20052;-75
2022/07/06 03:58:03;;;;;;;8.18;3.88;;;19.70;99.90;;;;;;5010255;28;20033;-75
2022/07/06 04:00:35;;;;;;;8.23;4.30;;;19.60;99.90;;;;;;5014376;28;20717;-74
2022/07/06 04:03:06;;;;;;;10.02;4.18;;;19.70;99.90;;;;;;5015427;28;20416;-74
2022/07/06 04:05:39;;;;;;;4.13;3.25;;;19.70;99.90;;;;;;5013916;28;20241;-74
2022/07/06 04:08:07;;;;;;;6.60;3.80;;;19.60;99.90;;;;;;5008620;28;20057;-75
2022/07/06 04:10:42;;;;;;;7.68;3.75;;;19.70;99.90;;;;;;5013606;28;20050;-75
2022/07/06 04:13:10;;;;;;;5.65;3.75;;;19.80;99.90;;;;;;5017394;28;20130;-76
2022/07/06 04:15:39;;;;;;;6.05;3.65;;;19.80;99.90;;;;;;5014423;28;20048;-77
2022/07/06 04:18:06;;;;;;;8.48;4.43;;;19.90;99.90;;;;;;4998764;28;20487;-75
2022/07/06 04:20:43;;;;;;;7.05;4.13;;;20.00;99.90;;;;;;4989418;28;20065;-74
2022/07/06 04:23:11;;;;;;;5.03;3.83;;;20.10;99.90;;;;;;4970107;28;20057;-76
2022/07/06 04:25:38;;;;;;;7.88;3.95;;;20.00;99.90;;;;;;4981427;28;20523;-76
2022/07/06 04:28:06;;;;;;;8.60;3.70;;;20.20;99.90;;;;;;4969840;28;20049;-76
2022/07/06 04:30:35;;;;;;;4.32;3.60;;;20.20;99.90;;;;;;4963275;28;20053;-76
2022/07/06 04:33:04;;;;;;;3.85;3.22;;;20.30;99.90;;;;;;4969159;28;20089;-76
2022/07/06 04:35:33;;;;;;;5.32;3.83;;;20.40;99.90;;;;;;4980301;28;20481;-76
2022/07/06 04:38:01;;;;;;;4.80;2.85;;;20.40;99.90;;;;;;4987221;28;20053;-76
2022/07/06 04:40:28;;;;;;;4.53;3.22;;;20.20;99.90;;;;;;4979881;28;20061;-76
2022/07/06 04:43:00;;;;;;;4.32;2.83;;;20.30;99.90;;;;;;4973508;28;22045;-76
2022/07/06 04:45:29;;;;;;;4.40;3.15;;;20.40;99.90;;;;;;4985957;28;20056;-76
2022/07/06 04:47:57;;;;;;;4.18;2.83;;;20.40;99.90;;;;;;4969354;28;22528;-76
2022/07/06 04:50:24;;;;;;;3.08;2.58;;;20.50;99.90;;;;;;4966983;28;20103;-75
2022/07/06 04:52:54;;;;;;;3.00;2.35;;;20.60;99.90;;;;;;4963825;28;20107;-76
2022/07/06 04:55:21;;;;;;;3.92;2.75;;;20.70;99.90;;;;;;4979414;28;20041;-76
2022/07/06 04:57:51;;;;;;;4.47;2.92;;;20.80;99.80;;;;;;4987092;28;20660;-76
2022/07/06 05:00:20;;;;;;;3.30;2.17;;;20.70;99.30;;;;;;4971901;28;20644;-74
2022/07/06 05:02:49;;;;;;;3.25;2.55;;;20.70;99.40;;;;;;4967725;28;20880;-74
2022/07/06 05:05:17;;;;;;;3.65;2.35;;;20.70;99.30;;;;;;4968679;28;20139;-76
2022/07/06 05:07:46;;;;;;;3.42;2.15;;;20.80;98.90;;;;;;4967867;28;20049;-74
2022/07/06 05:10:13;;;;;;;2.72;2.35;;;20.90;98.70;;;;;;4971154;28;20045;-74
2022/07/06 05:12:44;;;;;;;3.90;2.45;;;21.10;98.10;;;;;;4985274;28;22182;-75
2022/07/06 05:15:12;;;;;;;3.97;2.88;;;21.00;97.30;;;;;;4985145;28;20041;-74
2022/07/06 05:17:40;;;;;;;3.78;2.28;;;21.10;97.00;;;;;;4997236;28;22043;-74
2022/07/06 05:20:08;;;;;;;3.42;2.28;;;21.30;97.10;;;;;;4969079;28;20087;-75
2022/07/06 05:22:39;;;;;;;5.55;2.10;;;21.40;96.40;;;;;;4968758;28;20831;-74
2022/07/06 05:25:14;;;;;;;2.75;2.15;;;21.60;95.60;;;;;;4979120;28;20119;-74
2022/07/06 05:27:42;;;;;;;4.20;2.33;;;21.60;95.10;;;;;;4966111;28;20240;-74
2022/07/06 05:30:10;;;;;;;6.00;2.50;;;21.60;94.40;;;;;;4962824;28;20046;-75
2022/07/06 05:32:38;;;;;;;4.28;1.88;;;21.80;94.40;;;;;;4972238;28;20053;-75
2022/07/06 05:35:08;;;;;;;2.08;1.88;;;21.90;93.70;;;;;;4980819;28;21989;-75
2022/07/06 05:37:55;;;;;;;2.90;2.22;;;22.00;93.80;;;;;;4972621;28;20424;-74
2022/07/06 05:40:23;;;;;;;2.60;2.40;;;22.00;93.00;;;;;;4977497;28;20582;-75
2022/07/06 05:42:51;;;;;;;3.75;2.08;;;22.20;93.00;;;;;;4969719;28;21993;-75
2022/07/06 05:45:19;;;;;;;1.98;1.77;;;22.40;92.10;;;;;;4979153;28;20057;-76
2022/07/06 05:50:35;;;;;;;5.47;1.65;;;22.10;92.30;;;;;;4965973;28;20172;-75
2022/07/06 05:53:04;;;;;;;2.90;2.20;;;22.30;93.40;;;;;;4969884;28;20060;-74
2022/07/06 05:55:45;;;;;;;2.85;2.10;;;22.70;91.80;;;;;;4981571;28;20057;-74
2022/07/06 05:58:13;;;;;;;2.38;1.85;;;22.90;91.20;;;;;;4970220;28;22153;-76
2022/07/06 06:00:41;;;;;;;3.58;2.25;;;23.10;90.70;;;;;;4989315;28;20053;-75
2022/07/06 06:03:14;;;;;;;3.15;2.10;;;22.90;88.80;;;;;;4969088;28;22073;-76
2022/07/06 06:05:41;;;;;;;3.58;1.63;;;23.10;90.20;;;;;;4980702;28;20048;-76
2022/07/06 06:08:10;;;;;;;3.00;1.77;;;23.00;88.00;;;;;;4997441;28;20061;-76
2022/07/06 06:10:38;;;;;;;1.60;1.50;;;22.50;90.10;;;;;;4957682;28;20044;-76
2022/07/06 06:13:08;;;;;;;2.03;1.30;;;22.60;90.80;;;;;;4970983;28;22142;-75
2022/07/06 06:15:36;;;;;;;2.65;1.52;;;22.90;89.90;;;;;;4968747;28;20593;-75
2022/07/06 06:18:04;;;;;;;2.55;1.48;;;23.10;89.70;;;;;;4978502;28;20044;-76
2022/07/06 06:20:32;;;;;;;1.73;1.50;;;23.30;87.40;;;;;;4981059;28;20049;-75
2022/07/06 06:22:59;;;;;;;3.78;2.00;;;23.30;87.20;;;;;;4983819;28;20053;-76
2022/07/06 06:25:37;;;;;;;4.15;2.13;;;23.30;87.80;;;;;;4969655;28;20265;-75
2022/07/06 06:28:07;;;;;;;3.78;1.63;;;23.40;86.60;;;;;;4967089;28;20045;-75
2022/07/06 06:30:35;;;;;;;2.55;2.10;;;23.50;86.40;;;;;;4964174;28;20530;-76
2022/07/06 06:33:05;;;;;;;2.10;1.77;;;23.60;85.10;;;;;;4983562;28;20041;-76
2022/07/06 06:35:32;;;;;;;4.03;1.73;;;23.90;84.70;;;;;;4997226;28;20164;-75
2022/07/06 06:37:59;;;;;;;2.22;2.00;;;23.80;84.10;;;;;;4975701;28;20417;-76
2022/07/06 06:40:26;;;;;;;3.85;1.83;;;23.90;83.90;;;;;;4947972;28;20060;-76
2022/07/06 06:42:53;;;;;;;2.67;2.17;;;23.70;83.20;;;;;;4978137;28;20064;-76
2022/07/06 06:45:22;;;;;;;2.78;2.20;;;23.90;83.20;;;;;;4964722;28;20761;-76
2022/07/06 06:47:49;;;;;;;3.47;2.13;;;24.20;83.00;;;;;;4980516;28;20111;-76
2022/07/06 06:50:16;;;;;;;3.00;1.40;;;24.30;80.70;;;;;;4967876;28;21904;-76
2022/07/06 06:52:43;;;;;;;4.07;2.05;;;24.50;81.70;;;;;;4970208;28;20052;-76
2022/07/06 06:55:10;;;;;;;3.25;1.60;;;24.50;80.50;;;;;;4985155;28;21038;-75
2022/07/06 06:57:37;;;;;;;3.92;1.60;;;24.10;81.70;;;;;;4961732;28;20063;-75
2022/07/06 07:00:05;;;;;;;2.78;1.42;;;23.90;83.00;;;;;;4978262;28;20569;-76
2022/07/06 07:02:32;;;;;;;4.65;1.80;;;23.90;83.20;;;;;;4972197;28;20045;-76
2022/07/06 07:05:00;;;;;;;2.28;1.80;;;23.80;83.40;;;;;;4964341;28;20765;-75
2022/07/06 07:07:27;;;;;;;2.08;1.50;;;23.70;83.80;;;;;;4969880;28;20049;-76
2022/07/06 07:09:54;;;;;;;2.60;1.40;;;23.80;82.90;;;;;;4949237;28;20073;-77
2022/07/06 07:12:21;;;;;;;2.78;1.48;;;23.50;82.50;;;;;;4964467;28;20536;-76
2022/07/06 07:14:48;;;;;;;4.18;1.58;;;23.50;83.70;;;;;;5012215;28;21109;-75
2022/07/06 07:17:16;;;;;;;4.53;2.10;;;23.60;83.80;;;;;;5000411;28;20053;-76
2022/07/06 07:19:43;;;;;;;1.90;1.52;;;24.10;82.80;;;;;;4980277;28;20049;-76
2022/07/06 07:22:10;;;;;;;2.83;1.90;;;24.50;81.70;;;;;;4967059;28;20061;-76
2022/07/06 07:24:37;;;;;;;2.53;1.95;;;24.60;79.70;;;;;;4962715;28;20053;-76
2022/07/06 07:27:05;;;;;;;3.25;1.77;;;24.90;80.40;;;;;;4978186;28;20183;-76
2022/07/06 07:29:32;;;;;;;4.65;1.98;;;24.60;78.10;;;;;;4976477;28;20045;-76
2022/07/06 07:32:00;;;;;;;3.65;1.65;;;24.80;78.60;;;;;;4988208;28;20064;-75
2022/07/06 07:34:27;;;;;;;7.47;2.25;;;25.00;78.00;;;;;;4976581;28;20658;-76
2022/07/06 07:36:54;;;;;;;3.90;1.83;;;25.20;77.20;;;;;;4975762;28;20696;-76
2022/07/06 07:39:21;;;;;;;3.10;1.67;;;25.10;75.50;;;;;;4979517;28;20416;-75
2022/07/06 07:41:50;;;;;;;2.45;1.73;;;25.10;76.30;;;;;;4979381;28;20053;-75
2022/07/06 07:44:18;;;;;;;2.25;1.63;;;25.00;75.60;;;;;;4975441;28;22145;-77
2022/07/06 07:46:45;;;;;;;2.20;1.80;;;24.90;76.10;;;;;;4980443;28;20057;-76
2022/07/06 07:49:12;;;;;;;4.63;2.40;;;25.20;76.70;;;;;;4981225;28;20796;-75
2022/07/06 07:51:50;;;;;;;3.25;2.00;;;25.10;75.50;;;;;;4979370;28;20050;-76
2022/07/06 07:54:17;;;;;;;5.50;2.13;;;25.10;77.00;;;;;;4984349;28;20225;-77
2022/07/06 07:56:44;;;;;;;2.83;1.80;;;25.00;76.20;;;;;;4982826;28;20049;-76
2022/07/06 07:59:11;;;;;;;3.13;2.05;;;25.00;76.00;;;;;;4980335;28;20048;-77
2022/07/06 08:01:39;;;;;;;3.08;1.85;;;24.90;76.70;;;;;;4970335;28;20048;-77
2022/07/06 08:04:07;;;;;;;5.50;2.25;;;24.70;77.30;;;;;;4974540;28;20115;-77
2022/07/06 08:06:34;;;;;;;5.32;1.95;;;24.90;77.70;;;;;;4972960;28;20041;-76
2022/07/06 08:09:03;;;;;;;2.70;2.13;;;25.10;77.40;;;;;;4984081;28;20056;-76
2022/07/06 08:11:30;;;;;;;3.13;2.10;;;25.40;77.50;;;;;;4969801;28;20694;-78
2022/07/06 08:13:57;;;;;;;2.85;2.10;;;25.70;76.20;;;;;;4985104;28;20051;-77
2022/07/06 08:16:24;;;;;;;6.13;2.40;;;25.70;74.90;;;;;;4997283;28;20041;-77
2022/07/06 08:18:51;;;;;;;3.60;2.53;;;25.40;74.40;;;;;;4981397;28;20613;-76
2022/07/06 08:21:18;;;;;;;4.18;2.33;;;25.70;74.50;;;;;;4994925;28;20102;-76
2022/07/06 08:23:53;;;;;;;1.90;1.50;;;25.80;75.60;;;;;;4995914;28;22473;-76
2022/07/06 08:26:20;;;;;;;2.28;2.00;;;25.80;73.40;;;;;;4978816;28;22441;-76
2022/07/06 08:28:47;;;;;;;3.35;1.75;;;25.90;73.90;;;;;;4982886;28;20088;-76
2022/07/06 08:31:16;;;;;;;2.03;1.30;;;25.50;72.00;;;;;;4979634;28;20788;-76
2022/07/06 08:34:03;;;;;;;2.17;1.33;;;25.30;72.90;;;;;;4975392;28;20060;-76
2022/07/06 08:36:30;;;;;;;3.78;1.80;;;25.50;73.40;;;;;;4969063;28;22168;-77
2022/07/06 08:38:58;;;;;;;2.75;1.85;;;25.60;73.80;;;;;;4974882;28;20048;-76
2022/07/06 08:41:28;;;;;;;2.22;1.60;;;25.90;74.20;;;;;;4984211;28;20041;-77
2022/07/06 08:43:55;;;;;;;2.30;1.98;;;26.20;72.00;;;;;;4969767;28;20053;-76
2022/07/06 08:46:22;;;;;;;3.33;2.10;;;26.20;72.70;;;;;;4981265;28;20084;-76
2022/07/06 08:48:50;;;;;;;2.10;1.50;;;26.20;73.40;;;;;;4980321;28;20109;-76
2022/07/06 08:51:19;;;;;;;3.50;1.85;;;26.30;72.20;;;;;;4968784;28;20060;-76
2022/07/06 08:53:48;;;;;;;2.05;1.75;;;26.50;72.70;;;;;;4980250;28;20040;-76
2022/07/06 08:56:16;;;;;;;3.53;1.70;;;26.30;71.90;;;;;;4998197;28;20080;-76
2022/07/06 08:58:43;;;;;;;2.38;2.05;;;25.90;72.10;;;;;;4966039;28;20050;-75
2022/07/06 09:01:11;;;;;;;6.63;1.70;;;26.00;74.10;;;;;;4979830;28;20064;-76
2022/07/06 09:03:40;;;;;;;2.13;1.70;;;26.40;72.40;;;;;;4984803;28;20089;-75
2022/07/06 09:06:08;;;;;;;4.47;2.17;;;26.30;69.90;;;;;;4982105;28;20055;-76
2022/07/06 09:08:39;;;;;;;2.72;2.35;;;26.40;70.20;;;;;;4963878;28;20050;-77
2022/07/06 09:11:06;;;;;;;2.17;1.13;;;26.30;71.10;;;;;;4982345;28;20350;-77
2022/07/06 09:13:33;;;;;;;3.45;1.70;;;26.60;68.90;;;;;;4981137;28;20050;-76
2022/07/06 09:16:11;;;;;;;2.67;1.40;;;26.60;67.60;;;;;;4986341;28;20131;-76
2022/07/06 09:18:58;;;;;;;1.98;1.10;;;26.70;66.60;;;;;;4972804;28;20052;-77
2022/07/06 09:21:31;;;;;;;1.55;0.82;;;26.50;64.50;;;;;;4993182;28;20522;-77
2022/07/06 09:24:04;;;;;;;1.85;0.80;;;26.60;65.40;;;;;;4984148;28;22022;-76
2022/07/06 09:26:32;;;;;;;2.47;0.95;;;26.60;65.40;;;;;;4967515;28;20050;-76
2022/07/06 09:28:59;;;;;;;1.35;0.85;;;26.30;66.30;;;;;;4981894;28;20053;-76
2022/07/06 09:31:26;;;;;;;2.33;0.90;;;26.10;65.80;;;;;;4970558;28;20060;-75
2022/07/06 09:34:05;;;;;;;2.83;1.02;;;26.50;65.60;;;;;;4967755;28;20820;-77
2022/07/06 09:36:42;;;;;;;1.92;0.80;;;26.70;63.30;;;;;;4978604;28;20630;-75
2022/07/06 09:39:32;;;;;;;7.05;1.10;;;26.90;62.80;;;;;;4977438;28;20062;-75
2022/07/06 09:42:00;;;;;;;2.92;0.93;;;26.80;62.60;;;;;;5016630;28;22472;-75
2022/07/06 09:44:32;;;;;;;1.27;0.88;;;26.30;63.00;;;;;;5014512;28;20047;-76
2022/07/06 09:47:03;;;;;;;1.40;0.80;;;26.30;63.80;;;;;;5015629;28;20132;-76
2022/07/06 09:49:30;;;;;;;1.92;1.20;;;26.50;63.30;;;;;;5017551;28;22489;-74
2022/07/06 09:52:00;;;;;;;1.25;0.70;;;26.50;63.10;;;;;;5012946;28;20144;-77
2022/07/06 09:54:27;;;;;;;2.75;0.95;;;26.60;63.00;;;;;;5013771;28;20042;-77
2022/07/06 09:56:55;;;;;;;1.95;0.85;;;26.30;61.90;;;;;;5012166;28;20128;-76
2022/07/06 09:59:26;;;;;;;1.40;1.00;;;26.50;63.40;;;;;;5004048;28;20434;-77
2022/07/06 10:01:58;;;;;;;1.23;0.82;;;26.70;62.70;;;;;;5011452;28;22516;-76
2022/07/06 10:04:26;;;;;;;2.78;1.17;;;26.40;63.50;;;;;;5031978;28;20083;-76
2022/07/06 10:06:55;;;;;;;1.45;1.30;;;26.20;64.20;;;;;;5011160;28;20049;-77
2022/07/06 10:09:24;;;;;;;2.42;1.48;;;26.00;65.00;;;;;;5010963;28;20079;-77
2022/07/06 10:11:57;;;;;;;1.85;1.67;;;26.00;65.30;;;;;;4989077;28;20144;-77
2022/07/06 10:14:27;;;;;;;1.92;1.50;;;26.30;65.40;;;;;;5032743;28;20528;-77
2022/07/06 10:17:02;;;;;;;2.25;1.42;;;26.30;64.00;;;;;;5013979;28;20117;-76
2022/07/06 10:19:30;;;;;;;3.22;1.92;;;26.00;65.10;;;;;;5015951;28;20064;-77
2022/07/06 10:22:00;;;;;;;1.60;1.50;;;25.80;66.00;;;;;;5013944;28;20836;-76
2022/07/06 10:24:28;;;;;;;1.80;1.33;;;25.80;66.20;;;;;;4997789;28;20046;-78
2022/07/06 10:26:56;;;;;;;3.28;1.48;;;26.30;65.40;;;;;;5019742;28;20734;-76
2022/07/06 10:29:24;;;;;;;2.25;1.38;;;26.60;64.20;;;;;;5021299;28;20048;-77
2022/07/06 10:31:54;;;;;;;3.88;1.30;;;26.80;62.50;;;;;;5011961;28;20045;-77
2022/07/06 10:34:21;;;;;;;5.18;1.30;;;26.90;62.30;;;;;;5024269;28;20049;-76
2022/07/06 10:36:52;;;;;;;2.13;0.70;;;26.90;61.80;;;;;;4996237;28;20122;-77
2022/07/06 10:42:59;;;;;;;3.38;1.23;;;27.30;60.70;;;;;;5011186;28;20049;-76
2022/07/06 10:45:27;;;;;;;2.05;1.05;;;27.30;60.30;;;;;;5012526;28;20060;-76
2022/07/06 10:48:20;;;;;;;2.85;1.50;;;27.30;59.80;;;;;;5016108;28;20068;-76
2022/07/06 10:50:53;;;;;;;3.53;2.30;;;27.40;61.30;;;;;;5019788;28;20099;-76
2022/07/06 10:53:30;;;;;;;1.70;1.40;;;27.60;60.70;;;;;;4996414;28;20053;-76
2022/07/06 10:55:57;;;;;;;1.73;1.13;;;27.60;59.70;;;;;;5005625;28;20049;-76
2022/07/06 10:58:47;;;;;;;2.28;1.00;;;27.50;58.80;;;;;;5005204;28;20056;-76
2022/07/06 11:01:16;;;;;;;1.90;1.38;;;27.30;56.90;;;;;;5005060;28;20864;-78
2022/07/06 11:03:46;;;;;;;2.75;1.67;;;27.40;56.10;;;;;;5007242;28;20500;-77
2022/07/06 11:06:16;;;;;;;4.50;1.98;;;27.40;57.30;;;;;;5005192;28;20154;-76
2022/07/06 11:08:54;;;;;;;2.72;1.50;;;27.60;57.50;;;;;;5005123;28;20052;-77
2022/07/06 11:11:22;;;;;;;3.83;1.60;;;27.20;57.40;;;;;;5004735;28;20041;-77
2022/07/06 11:14:10;;;;;;;4.07;1.50;;;27.30;56.90;;;;;;4995863;28;20049;-76
2022/07/06 11:17:00;;;;;;;2.58;1.77;;;27.20;57.80;;;;;;5005731;28;20049;-76
2022/07/06 11:19:28;;;;;;;4.75;1.67;;;26.80;57.30;;;;;;4987342;28;20049;-75
2022/07/06 11:21:57;;;;;;;2.85;1.23;;;27.10;58.30;;;;;;5004871;28;20626;-76
2022/07/06 11:24:30;;;;;;;2.47;1.33;;;27.30;56.30;;;;;;5011338;28;22620;-75
2022/07/06 11:26:59;;;;;;;2.65;1.55;;;27.40;54.60;;;;;;5000248;28;20142;-76
2022/07/06 11:29:28;;;;;;;6.53;1.60;;;27.30;55.20;;;;;;5008929;28;20054;-76
2022/07/06 11:32:00;;;;;;;5.68;1.38;;;27.20;53.40;;;;;;5009204;28;21389;-76
2022/07/06 11:34:32;;;;;;;2.65;1.17;;;27.30;53.00;;;;;;5009307;28;22346;-76
2022/07/06 11:37:13;;;;;;;3.25;1.35;;;27.50;52.70;;;;;;5008138;28;20052;-76
2022/07/06 11:39:42;;;;;;;3.08;1.20;;;27.50;51.80;;;;;;5005599;28;20061;-76
2022/07/06 11:42:11;;;;;;;3.30;1.42;;;27.70;50.90;;;;;;4988246;28;20127;-76
2022/07/06 11:44:40;;;;;;;2.25;1.50;;;27.80;52.50;;;;;;4974184;28;20045;-76
2022/07/06 11:47:08;;;;;;;2.53;1.40;;;27.70;51.20;;;;;;4974284;28;20820;-76
2022/07/06 11:49:37;;;;;;;3.88;1.67;;;27.80;52.50;;;;;;4978240;28;20385;-76
2022/07/06 11:52:12;;;;;;;2.88;1.50;;;27.80;52.10;;;;;;4981991;28;22010;-76
2022/07/06 11:54:40;;;;;;;3.30;1.48;;;27.80;52.70;;;;;;4966748;28;22454;-76
2022/07/06 11:57:10;;;;;;;4.20;1.73;;;27.80;50.60;;;;;;4974962;28;20144;-76
2022/07/06 11:59:39;;;;;;;3.35;1.85;;;27.90;50.50;;;;;;4961769;28;20049;-76
2022/07/06 12:02:11;;;;;;;3.08;1.50;;;27.80;50.70;;;;;;4982383;28;20053;-76
2022/07/06 12:04:41;;;;;;;5.95;1.88;;;27.90;51.40;;;;;;4974753;28;20049;-78
2022/07/06 12:07:11;;;;;;;9.00;1.90;;;27.70;49.60;;;;;;4985565;28;20049;-77
2022/07/06 12:09:41;;;;;;;3.67;1.25;;;27.50;47.90;;;;;;4983711;28;20077;-76
2022/07/06 12:12:10;;;;;;;2.22;1.50;;;27.80;50.00;;;;;;4987526;28;20143;-76
2022/07/06 12:14:39;;;;;;;3.67;1.63;;;27.60;49.60;;;;;;4989747;28;22573;-75
2022/07/06 12:17:09;;;;;;;2.50;1.38;;;27.40;49.60;;;;;;5001516;28;20048;-76
2022/07/06 12:19:37;;;;;;;2.75;1.58;;;27.50;50.00;;;;;;4985539;28;20124;-76
2022/07/06 12:22:06;;;;;;;5.25;1.48;;;27.90;50.80;;;;;;4996126;28;20049;-77
2022/07/06 12:24:35;;;;;;;6.78;2.00;;;28.10;47.80;;;;;;5005651;28;20057;-75
2022/07/06 12:27:17;;;;;;;3.00;1.67;;;28.10;49.00;;;;;;4980907;28;20440;-77
2022/07/06 12:29:45;;;;;;;2.13;1.52;;;28.30;48.70;;;;;;4990904;28;20760;-76
2022/07/06 12:32:22;;;;;;;3.15;1.60;;;28.20;48.80;;;;;;4973607;28;20046;-76
2022/07/06 12:35:04;;;;;;;10.73;2.13;;;28.20;47.50;;;;;;4971366;28;20120;-76
2022/07/06 12:37:32;;;;;;;2.78;1.80;;;28.10;48.40;;;;;;4981281;28;22153;-78
2022/07/06 12:39:59;;;;;;;2.35;1.60;;;28.10;48.20;;;;;;4975243;28;20672;-76
2022/07/06 12:42:27;;;;;;;2.28;2.03;;;28.20;48.40;;;;;;4979519;28;20456;-76
2022/07/06 12:44:55;;;;;;;4.60;1.90;;;28.20;48.60;;;;;;4972030;28;20068;-76
2022/07/06 12:47:24;;;;;;;6.75;2.28;;;28.00;48.00;;;;;;4963838;28;20050;-75
2022/07/06 12:50:07;;;;;;;6.40;2.10;;;27.80;48.20;;;;;;4984168;28;22519;-76
2022/07/06 12:52:35;;;;;;;7.57;2.08;;;28.00;48.20;;;;;;4966040;28;20045;-76
2022/07/06 12:55:05;;;;;;;5.57;2.20;;;28.10;48.30;;;;;;4963502;28;20053;-76
2022/07/06 12:57:44;;;;;;;;;;;28.00;48.30;;;;;;4976874;28;20041;-76
2022/07/06 13:00:12;;;;;;;3.15;1.63;;;28.00;47.50;;;;;;4980213;28;20309;-76
2022/07/06 13:02:39;;;;;;;2.53;1.80;;;28.00;48.10;;;;;;4966501;28;20052;-76
2022/07/06 13:05:30;;;;;;;2.85;1.70;;;28.00;48.70;;;;;;4982782;28;20090;-75